createdAt,value
2022-09-25T00:01:30.291Z,12.00
2022-09-25T00:03:58.565Z,12.00
2022-09-25T00:06:28.979Z,11.90
2022-09-25T00:08:58.768Z,11.90
2022-09-25T00:11:31.038Z,11.90
2022-09-25T00:14:00.559Z,11.80
2022-09-25T00:16:31.995Z,11.80
2022-09-25T00:19:19.919Z,11.70
2022-09-25T00:21:53.099Z,11.70
2022-09-25T00:24:22.333Z,11.60
2022-09-25T00:26:50.536Z,11.60
2022-09-25T00:29:20.722Z,11.50
2022-09-25T00:31:50.195Z,11.40
2022-09-25T00:34:18.534Z,11.40
2022-09-25T00:36:46.643Z,11.30
2022-09-25T00:39:14.873Z,11.30
2022-09-25T00:41:42.916Z,11.30
2022-09-25T00:44:44.345Z,11.20
2022-09-25T00:47:17.031Z,11.20
2022-09-25T00:49:46.487Z,11.20
2022-09-25T00:52:15.294Z,11.10
2022-09-25T00:54:49.069Z,11.10
2022-09-25T00:57:21.716Z,11.10
2022-09-25T00:59:53.598Z,11.00
2022-09-25T01:02:29.187Z,11.00
2022-09-25T01:05:01.027Z,10.90
2022-09-25T01:07:29.565Z,10.90
2022-09-25T01:09:59.471Z,10.80
2022-09-25T01:12:28.062Z,10.80
2022-09-25T01:14:57.277Z,10.80
2022-09-25T01:17:34.551Z,10.70
2022-09-25T01:20:23.293Z,10.60
2022-09-25T01:23:07.716Z,10.60
2022-09-25T01:25:47.685Z,10.60
2022-09-25T01:28:32.826Z,10.50
2022-09-25T01:31:07.558Z,10.50
2022-09-25T01:33:42.690Z,10.50
2022-09-25T01:36:18.057Z,10.50
2022-09-25T01:38:51.879Z,10.50
2022-09-25T01:41:24.828Z,10.50
2022-09-25T01:43:57.559Z,10.50
2022-09-25T01:46:30.717Z,10.50
2022-09-25T01:49:03.655Z,10.50
2022-09-25T01:51:35.609Z,10.50
2022-09-25T01:54:08.997Z,10.50
2022-09-25T01:56:43.896Z,10.50
2022-09-25T01:59:19.007Z,10.60
2022-09-25T02:01:49.961Z,10.60
2022-09-25T02:04:21.575Z,10.60
2022-09-25T02:06:51.857Z,10.70
2022-09-25T02:09:25.998Z,10.70
2022-09-25T02:11:58.856Z,10.70
2022-09-25T02:14:33.609Z,10.80
2022-09-25T02:17:06.463Z,10.80
2022-09-25T02:19:52.275Z,10.80
2022-09-25T02:22:24.712Z,10.90
2022-09-25T02:24:59.296Z,10.90
2022-09-25T02:27:29.430Z,10.90
2022-09-25T02:29:58.644Z,11.00
2022-09-25T02:32:31.897Z,11.10
2022-09-25T02:35:01.141Z,11.10
2022-09-25T02:37:29.902Z,11.20
2022-09-25T02:40:00.782Z,11.20
2022-09-25T02:42:39.691Z,11.20
2022-09-25T02:45:25.070Z,11.30
2022-09-25T02:48:08.740Z,11.30
2022-09-25T02:50:46.250Z,11.30
2022-09-25T02:53:19.349Z,11.30
2022-09-25T02:55:51.650Z,11.40
2022-09-25T02:58:27.257Z,11.40
2022-09-25T03:00:58.267Z,11.40
2022-09-25T03:03:29.226Z,11.40
2022-09-25T03:05:58.877Z,11.40
2022-09-25T03:08:41.902Z,11.40
2022-09-25T03:11:12.489Z,11.40
2022-09-25T03:13:41.748Z,11.50
2022-09-25T03:16:15.165Z,11.40
2022-09-25T03:18:44.586Z,11.50
2022-09-25T03:21:12.635Z,11.50
2022-09-25T03:23:41.013Z,11.50
2022-09-25T03:26:09.126Z,11.50
2022-09-25T03:28:37.305Z,11.40
2022-09-25T03:31:07.634Z,11.40
2022-09-25T03:33:37.602Z,11.40
2022-09-25T03:36:09.623Z,11.50
2022-09-25T03:38:37.788Z,11.50
2022-09-25T03:41:08.842Z,11.50
2022-09-25T03:43:37.383Z,11.50
2022-09-25T03:46:06.279Z,11.50
2022-09-25T03:48:35.194Z,11.50
2022-09-25T03:51:03.623Z,11.50
2022-09-25T03:53:33.909Z,11.40
2022-09-25T03:56:02.276Z,11.40
2022-09-25T03:58:31.178Z,11.40
2022-09-25T04:00:59.523Z,11.40
2022-09-25T04:03:29.032Z,11.40
2022-09-25T04:05:57.746Z,11.30
2022-09-25T04:08:27.045Z,11.30
2022-09-25T04:10:58.301Z,11.30
2022-09-25T04:13:26.756Z,11.20
2022-09-25T04:15:55.049Z,11.20
2022-09-25T04:18:23.352Z,11.10
2022-09-25T04:20:51.455Z,11.10
2022-09-25T04:23:19.598Z,11.10
2022-09-25T04:25:49.122Z,11.00
2022-09-25T04:28:18.728Z,11.00
2022-09-25T04:30:46.800Z,11.00
2022-09-25T04:33:32.058Z,11.00
2022-09-25T04:36:00.265Z,10.90
2022-09-25T04:38:31.353Z,10.90
2022-09-25T04:41:00.030Z,10.90
2022-09-25T04:43:31.222Z,10.80
2022-09-25T04:46:02.936Z,10.80
2022-09-25T04:48:31.283Z,10.80
2022-09-25T04:51:00.300Z,10.80
2022-09-25T04:53:30.002Z,10.80
2022-09-25T04:56:02.967Z,10.70
2022-09-25T04:58:32.642Z,10.70
2022-09-25T05:01:04.525Z,10.70
2022-09-25T05:03:32.779Z,10.70
2022-09-25T05:06:00.898Z,10.60
2022-09-25T05:08:29.223Z,10.60
2022-09-25T05:10:57.435Z,10.60
2022-09-25T05:13:25.679Z,10.60
2022-09-25T05:15:56.433Z,10.60
2022-09-25T05:18:25.230Z,10.60
2022-09-25T05:20:54.490Z,10.50
2022-09-25T05:23:23.955Z,10.50
2022-09-25T05:26:00.695Z,10.50
2022-09-25T05:28:28.792Z,10.40
2022-09-25T05:31:02.823Z,10.40
2022-09-25T05:33:31.254Z,10.30
2022-09-25T05:36:02.304Z,10.30
2022-09-25T05:38:30.413Z,10.30
2022-09-25T05:41:04.441Z,10.20
2022-09-25T05:43:33.178Z,10.20
2022-09-25T05:46:03.149Z,10.20
2022-09-25T05:48:32.159Z,10.20
2022-09-25T05:51:00.632Z,10.20
2022-09-25T05:53:29.125Z,10.20
2022-09-25T05:55:58.611Z,10.20
2022-09-25T05:58:27.864Z,10.10
2022-09-25T06:01:03.306Z,10.10
2022-09-25T06:03:31.975Z,10.10
2022-09-25T06:06:00.605Z,10.10
2022-09-25T06:08:31.234Z,10.10
2022-09-25T06:11:00.705Z,10.10
2022-09-25T06:13:29.306Z,10.20
2022-09-25T06:15:57.556Z,10.20
2022-09-25T06:18:27.455Z,10.20
2022-09-25T06:21:01.511Z,10.20
2022-09-25T06:23:29.664Z,10.20
2022-09-25T06:26:01.577Z,10.20
2022-09-25T06:28:31.081Z,10.20
2022-09-25T06:31:01.764Z,10.20
2022-09-25T06:33:32.055Z,10.30
2022-09-25T06:36:00.657Z,10.30
2022-09-25T06:38:29.399Z,10.30
2022-09-25T06:41:00.402Z,10.30
2022-09-25T06:43:30.438Z,10.30
2022-09-25T06:46:03.625Z,10.40
2022-09-25T06:48:33.433Z,10.40
2022-09-25T06:51:02.567Z,10.50
2022-09-25T06:53:31.139Z,10.60
2022-09-25T06:56:00.329Z,10.70
2022-09-25T06:58:30.258Z,10.90
2022-09-25T07:00:58.981Z,11.10
2022-09-25T07:03:44.745Z,11.40
2022-09-25T07:06:15.774Z,11.50
2022-09-25T07:08:44.763Z,11.70
2022-09-25T07:11:15.089Z,12.20
2022-09-25T07:13:43.649Z,12.50
2022-09-25T07:16:14.933Z,12.80
2022-09-25T07:18:43.821Z,12.60
2022-09-25T07:21:15.084Z,12.60
2022-09-25T07:23:43.735Z,13.20
2022-09-25T07:26:13.417Z,13.80
2022-09-25T07:28:42.728Z,14.40
2022-09-25T07:31:15.897Z,14.90
2022-09-25T07:33:44.296Z,15.10
2022-09-25T07:36:14.720Z,15.40
2022-09-25T07:38:43.233Z,15.70
2022-09-25T07:41:13.583Z,16.00
2022-09-25T07:43:43.611Z,16.40
2022-09-25T07:46:14.511Z,16.40
2022-09-25T07:48:42.645Z,16.60
2022-09-25T07:51:14.219Z,16.50
2022-09-25T07:53:42.702Z,16.60
2022-09-25T07:56:12.045Z,16.40
2022-09-25T07:58:40.748Z,16.40
2022-09-25T08:01:12.018Z,16.50
2022-09-25T08:03:40.200Z,16.40
2022-09-25T08:06:11.838Z,16.80
2022-09-25T08:08:42.115Z,17.10
2022-09-25T08:11:14.286Z,17.20
2022-09-25T08:13:43.844Z,17.20
2022-09-25T08:16:13.825Z,17.10
2022-09-25T08:18:42.760Z,16.90
2022-09-25T08:21:14.123Z,16.80
2022-09-25T08:23:47.736Z,16.90
2022-09-25T08:26:16.695Z,16.60
2022-09-25T08:28:45.311Z,16.50
2022-09-25T08:31:14.674Z,16.20
2022-09-25T08:33:45.910Z,16.00
2022-09-25T08:36:14.150Z,15.90
2022-09-25T08:38:43.934Z,16.00
2022-09-25T08:41:17.373Z,16.00
2022-09-25T08:43:52.978Z,16.20
2022-09-25T08:46:43.420Z,16.30
2022-09-25T08:49:14.262Z,16.30
2022-09-25T08:51:45.416Z,16.70
2022-09-25T08:54:21.877Z,17.20
2022-09-25T08:56:52.347Z,17.50
2022-09-25T08:59:26.876Z,17.70
2022-09-25T09:01:58.674Z,18.00
2022-09-25T09:04:32.034Z,18.30
2022-09-25T09:07:26.493Z,18.70
2022-09-25T09:10:01.283Z,19.10
2022-09-25T09:12:39.666Z,19.00
2022-09-25T09:15:19.725Z,19.20
2022-09-25T09:17:47.878Z,19.40
2022-09-25T09:20:19.585Z,19.70
2022-09-25T09:22:52.860Z,19.90
2022-09-25T09:25:29.252Z,19.70
2022-09-25T09:28:19.279Z,19.00
2022-09-25T09:30:57.155Z,19.10
2022-09-25T09:33:42.670Z,19.50
2022-09-25T09:36:18.334Z,19.00
2022-09-25T09:38:57.221Z,19.30
2022-09-25T09:41:39.428Z,19.00
2022-09-25T09:44:25.010Z,18.60
2022-09-25T09:47:03.183Z,18.90
2022-09-25T09:49:37.360Z,19.40
2022-09-25T09:52:12.053Z,19.50
2022-09-25T09:54:43.550Z,19.50
2022-09-25T09:57:20.442Z,19.70
2022-09-25T09:59:55.066Z,19.70
2022-09-25T10:02:33.013Z,20.10
2022-09-25T10:05:04.306Z,20.20
2022-09-25T10:07:37.512Z,20.50
2022-09-25T10:10:13.874Z,20.70
2022-09-25T10:12:47.341Z,20.10
2022-09-25T10:15:31.037Z,19.80
2022-09-25T10:18:01.915Z,19.60
2022-09-25T10:20:40.145Z,20.00
2022-09-25T10:23:21.010Z,20.20
2022-09-25T10:25:52.502Z,19.80
2022-09-25T10:28:29.251Z,19.40
2022-09-25T10:30:58.921Z,19.00
2022-09-25T10:33:29.249Z,18.70
2022-09-25T10:35:58.450Z,19.00
2022-09-25T10:38:38.946Z,19.60
2022-09-25T10:41:10.326Z,20.00
2022-09-25T10:43:52.220Z,20.20
2022-09-25T10:46:49.913Z,19.90
2022-09-25T10:49:38.746Z,19.20
2022-09-25T10:52:08.192Z,18.90
2022-09-25T10:54:43.568Z,18.50
2022-09-25T10:57:18.741Z,18.30
2022-09-25T10:59:52.096Z,18.00
2022-09-25T11:02:31.546Z,17.90
2022-09-25T11:05:00.056Z,17.80
2022-09-25T11:07:28.490Z,17.70
2022-09-25T11:10:00.224Z,17.60
2022-09-25T11:12:30.386Z,17.70
2022-09-25T11:15:05.867Z,18.30
2022-09-25T11:17:41.079Z,18.60
2022-09-25T11:20:29.236Z,19.30
2022-09-25T11:23:16.926Z,20.00
2022-09-25T11:25:50.266Z,20.20
2022-09-25T11:28:33.645Z,20.20
2022-09-25T11:31:12.564Z,20.40
2022-09-25T11:33:46.421Z,20.70
2022-09-25T11:36:20.320Z,20.80
2022-09-25T11:39:07.406Z,20.60
2022-09-25T11:41:42.168Z,20.40
2022-09-25T11:44:19.430Z,20.10
2022-09-25T11:46:56.632Z,19.80
2022-09-25T11:49:27.889Z,19.50
2022-09-25T11:52:25.779Z,19.20
2022-09-25T11:55:14.806Z,19.10
2022-09-25T11:57:51.459Z,19.30
2022-09-25T12:00:24.576Z,19.40
2022-09-25T12:03:12.088Z,19.90
2022-09-25T12:06:03.161Z,19.80
2022-09-25T12:08:44.284Z,19.60
2022-09-25T12:11:23.600Z,19.20
2022-09-25T12:13:58.788Z,18.80
2022-09-25T12:16:35.294Z,18.70
2022-09-25T12:19:16.455Z,18.60
2022-09-25T12:21:52.955Z,18.60
2022-09-25T12:24:36.177Z,18.60
2022-09-25T12:27:12.855Z,18.60
2022-09-25T12:29:59.404Z,18.60
2022-09-25T12:32:36.830Z,19.10
2022-09-25T12:35:22.299Z,19.90
2022-09-25T12:37:55.871Z,20.50
2022-09-25T12:40:30.059Z,20.50
2022-09-25T12:43:04.341Z,20.30
2022-09-25T12:45:37.426Z,20.20
2022-09-25T12:48:12.387Z,20.10
2022-09-25T12:50:49.268Z,19.90
2022-09-25T12:53:28.142Z,19.50
2022-09-25T12:56:01.383Z,19.60
2022-09-25T12:58:46.081Z,20.20
2022-09-25T13:01:22.985Z,20.80
2022-09-25T13:04:02.022Z,21.30
2022-09-25T13:06:41.853Z,21.00
2022-09-25T13:09:19.699Z,20.90
2022-09-25T13:11:51.829Z,20.10
2022-09-25T13:14:31.496Z,19.90
2022-09-25T13:17:01.246Z,19.60
2022-09-25T13:19:30.468Z,20.20
2022-09-25T13:22:06.671Z,21.10
2022-09-25T13:24:45.749Z,22.10
2022-09-25T13:27:19.068Z,22.50
2022-09-25T13:29:57.999Z,22.20
2022-09-25T13:32:31.806Z,21.50
2022-09-25T13:35:03.609Z,21.00
2022-09-25T13:37:36.650Z,20.40
2022-09-25T13:40:34.556Z,20.00
2022-09-25T13:43:21.360Z,19.60
2022-09-25T13:45:50.492Z,19.30
2022-09-25T13:48:38.037Z,19.00
2022-09-25T13:51:34.962Z,18.90
2022-09-25T13:54:26.711Z,18.80
2022-09-25T13:56:55.362Z,18.70
2022-09-25T13:59:39.827Z,18.70
2022-09-25T14:02:39.924Z,18.70
2022-09-25T14:05:08.611Z,18.70
2022-09-25T14:07:37.963Z,18.70
2022-09-25T14:10:12.671Z,18.80
2022-09-25T14:12:46.142Z,18.90
2022-09-25T14:15:26.565Z,19.00
2022-09-25T14:17:58.976Z,19.00
2022-09-25T14:20:35.625Z,19.20
2022-09-25T14:23:07.870Z,19.80
2022-09-25T14:25:42.867Z,20.20
2022-09-25T14:28:30.238Z,20.80
2022-09-25T14:31:14.419Z,21.80
2022-09-25T14:33:58.039Z,22.70
2022-09-25T14:36:36.907Z,23.80
2022-09-25T14:39:25.261Z,24.80
2022-09-25T14:42:26.570Z,25.40
2022-09-25T14:45:18.018Z,25.90
2022-09-25T14:47:49.447Z,26.40
2022-09-25T14:50:23.418Z,26.90
2022-09-25T14:52:55.591Z,27.00
2022-09-25T14:55:24.613Z,27.20
2022-09-25T14:57:55.013Z,27.10
2022-09-25T15:00:24.782Z,26.90
2022-09-25T15:02:56.043Z,26.80
2022-09-25T15:05:33.198Z,26.40
2022-09-25T15:08:03.032Z,25.90
2022-09-25T15:10:33.949Z,25.10
2022-09-25T15:13:17.030Z,23.90
2022-09-25T15:16:03.688Z,22.90
2022-09-25T15:18:32.691Z,22.10
2022-09-25T15:21:02.094Z,21.40
2022-09-25T15:23:34.374Z,21.50
2022-09-25T15:26:04.283Z,22.10
2022-09-25T15:28:40.042Z,22.70
2022-09-25T15:31:09.189Z,23.30
2022-09-25T15:34:02.636Z,23.30
2022-09-25T15:36:30.878Z,23.00
2022-09-25T15:39:01.211Z,22.20
2022-09-25T15:41:30.328Z,21.50
2022-09-25T15:44:14.343Z,21.00
2022-09-25T15:46:45.439Z,20.40
2022-09-25T15:49:17.447Z,19.90
2022-09-25T15:52:00.153Z,19.30
2022-09-25T15:54:39.393Z,19.00
2022-09-25T15:57:13.348Z,18.80
2022-09-25T15:59:59.912Z,19.00
2022-09-25T16:02:55.579Z,19.40
2022-09-25T16:05:30.177Z,20.20
2022-09-25T16:08:17.124Z,21.00
2022-09-25T16:10:50.093Z,21.40
2022-09-25T16:13:23.772Z,21.60
2022-09-25T16:15:54.543Z,21.80
2022-09-25T16:18:39.461Z,21.60
2022-09-25T16:21:15.225Z,21.30
2022-09-25T16:23:43.918Z,21.30
2022-09-25T16:26:23.190Z,21.00
2022-09-25T16:29:03.464Z,20.40
2022-09-25T16:31:35.311Z,19.90
2022-09-25T16:34:04.859Z,19.30
2022-09-25T16:36:41.348Z,18.80
2022-09-25T16:39:27.597Z,18.20
2022-09-25T16:41:56.507Z,17.60
2022-09-25T16:44:46.043Z,17.10
2022-09-25T16:47:18.795Z,16.80
2022-09-25T16:49:47.406Z,16.60
2022-09-25T16:52:21.693Z,16.50
2022-09-25T16:54:53.688Z,16.40
2022-09-25T16:57:23.451Z,16.20
2022-09-25T16:59:51.673Z,16.00
2022-09-25T17:02:33.272Z,15.80
2022-09-25T17:05:05.480Z,15.60
2022-09-25T17:07:33.697Z,15.40
2022-09-25T17:10:02.334Z,15.30
2022-09-25T17:12:32.241Z,15.10
2022-09-25T17:15:00.531Z,15.00
2022-09-25T17:17:31.131Z,14.80
2022-09-25T17:19:59.449Z,14.60
2022-09-25T17:22:30.469Z,14.50
2022-09-25T17:25:03.223Z,14.40
2022-09-25T17:27:31.360Z,14.30
2022-09-25T17:29:59.950Z,14.20
2022-09-25T17:32:31.316Z,14.10
2022-09-25T17:35:02.235Z,14.00
2022-09-25T17:37:30.395Z,13.90
2022-09-25T17:39:59.341Z,13.80
2022-09-25T17:42:27.946Z,13.80
2022-09-25T17:44:57.591Z,13.70
2022-09-25T17:47:27.483Z,13.60
2022-09-25T17:49:57.736Z,13.50
2022-09-25T17:52:26.452Z,13.40
2022-09-25T17:54:54.602Z,13.30
2022-09-25T17:57:22.965Z,13.20
2022-09-25T17:59:51.200Z,13.10
2022-09-25T18:02:19.492Z,13.00
2022-09-25T18:04:48.004Z,12.90
2022-09-25T18:07:18.481Z,12.90
2022-09-25T18:09:46.727Z,12.80
2022-09-25T18:12:14.907Z,12.70
2022-09-25T18:14:46.347Z,12.60
2022-09-25T18:17:16.712Z,12.50
2022-09-25T18:19:58.844Z,12.50
2022-09-25T18:22:28.666Z,12.40
2022-09-25T18:24:57.519Z,12.30
2022-09-25T18:27:27.259Z,12.20
2022-09-25T18:29:55.720Z,12.10
2022-09-25T18:32:24.421Z,12.00
2022-09-25T18:34:52.613Z,11.90
2022-09-25T18:37:20.730Z,11.80
2022-09-25T18:39:50.895Z,11.70
2022-09-25T18:42:19.251Z,11.70
2022-09-25T18:44:47.553Z,11.50
2022-09-25T18:47:16.286Z,11.40
2022-09-25T18:49:44.455Z,11.20
2022-09-25T18:52:12.978Z,11.10
2022-09-25T18:54:42.238Z,11.10
2022-09-25T18:57:12.894Z,11.00
2022-09-25T18:59:41.419Z,11.00
2022-09-25T19:02:19.897Z,10.90
2022-09-25T19:04:48.835Z,10.80
2022-09-25T19:07:17.092Z,10.80
2022-09-25T19:09:45.185Z,10.60
2022-09-25T19:12:17.483Z,10.60
2022-09-25T19:14:46.928Z,10.50
2022-09-25T19:17:16.507Z,10.50
2022-09-25T19:19:44.834Z,10.40
2022-09-25T19:22:17.966Z,10.30
2022-09-25T19:24:47.216Z,10.20
2022-09-25T19:27:18.628Z,10.20
2022-09-25T19:29:47.944Z,10.10
2022-09-25T19:32:18.127Z,10.00
2022-09-25T19:34:46.481Z,9.90
2022-09-25T19:37:15.266Z,9.90
2022-09-25T19:40:01.035Z,9.80
2022-09-25T19:42:33.776Z,9.70
2022-09-25T19:45:02.464Z,9.70
2022-09-25T19:47:33.173Z,9.60
2022-09-25T19:50:01.502Z,9.60
2022-09-25T19:52:29.839Z,9.50
2022-09-25T19:54:58.133Z,9.50
2022-09-25T19:57:26.285Z,9.50
2022-09-25T19:59:56.139Z,9.40
2022-09-25T20:02:24.830Z,9.40
2022-09-25T20:04:53.372Z,9.30
2022-09-25T20:07:21.855Z,9.30
2022-09-25T20:09:50.049Z,9.20
2022-09-25T20:12:18.319Z,9.10
2022-09-25T20:14:46.409Z,9.10
2022-09-25T20:17:16.039Z,9.00
2022-09-25T20:19:44.109Z,8.90
2022-09-25T20:22:12.200Z,8.80
2022-09-25T20:24:40.339Z,8.80
2022-09-25T20:27:08.730Z,8.80
2022-09-25T20:29:37.009Z,8.70
2022-09-25T20:32:05.155Z,8.70
2022-09-25T20:34:34.783Z,8.60
2022-09-25T20:37:03.689Z,8.60
2022-09-25T20:39:31.867Z,8.50
2022-09-25T20:42:00.024Z,8.40
2022-09-25T20:44:28.224Z,8.40
2022-09-25T20:46:56.327Z,8.40
2022-09-25T20:49:24.713Z,8.30
2022-09-25T20:51:54.500Z,8.20
2022-09-25T20:54:26.728Z,8.20
2022-09-25T20:56:55.091Z,8.20
2022-09-25T20:59:23.244Z,8.20
2022-09-25T21:01:51.641Z,8.10
2022-09-25T21:04:19.882Z,8.10
2022-09-25T21:06:47.976Z,8.00
2022-09-25T21:09:21.048Z,8.00
2022-09-25T21:11:49.695Z,7.90
2022-09-25T21:14:20.431Z,7.80
2022-09-25T21:16:49.381Z,7.80
2022-09-25T21:19:19.192Z,7.80
2022-09-25T21:21:48.408Z,7.80
2022-09-25T21:24:20.070Z,7.80
2022-09-25T21:26:48.833Z,7.80
2022-09-25T21:29:17.678Z,7.70
2022-09-25T21:31:49.790Z,7.70
2022-09-25T21:34:19.900Z,7.70
2022-09-25T21:36:48.649Z,7.60
2022-09-25T21:39:20.826Z,7.60
2022-09-25T21:41:49.449Z,7.60
2022-09-25T21:44:20.293Z,7.60
2022-09-25T21:46:48.712Z,7.50
2022-09-25T21:49:18.541Z,7.50
2022-09-25T21:51:48.462Z,7.40
2022-09-25T21:54:18.718Z,7.30
2022-09-25T21:56:49.153Z,7.30
2022-09-25T21:59:17.866Z,7.30
2022-09-25T22:01:46.300Z,7.20
2022-09-25T22:04:15.329Z,7.20
2022-09-25T22:06:46.218Z,7.10
2022-09-25T22:09:17.646Z,7.10
2022-09-25T22:11:47.734Z,7.10
2022-09-25T22:14:16.768Z,7.10
2022-09-25T22:16:46.804Z,7.10
2022-09-25T22:19:16.707Z,7.10
2022-09-25T22:21:47.655Z,7.10
2022-09-25T22:24:17.317Z,7.00
2022-09-25T22:26:47.323Z,7.00
2022-09-25T22:29:16.443Z,7.00
2022-09-25T22:31:45.058Z,7.00
2022-09-25T22:34:19.464Z,7.00
2022-09-25T22:36:48.451Z,7.00
2022-09-25T22:39:20.364Z,7.00
2022-09-25T22:41:52.096Z,7.00
2022-09-25T22:44:20.801Z,7.00
2022-09-25T22:46:49.502Z,7.00
2022-09-25T22:49:17.960Z,7.00
2022-09-25T22:51:46.156Z,7.00
2022-09-25T22:54:15.485Z,7.00
2022-09-25T22:56:45.104Z,7.00
2022-09-25T22:59:18.092Z,7.00
2022-09-25T23:01:48.801Z,7.00
2022-09-25T23:04:18.516Z,6.90
2022-09-25T23:06:46.801Z,7.00
2022-09-25T23:09:17.864Z,7.00
2022-09-25T23:11:47.514Z,7.10
2022-09-25T23:14:19.522Z,7.10
2022-09-25T23:16:49.502Z,7.10
2022-09-25T23:19:17.971Z,7.20
2022-09-25T23:21:46.561Z,7.20
2022-09-25T23:24:16.951Z,7.20
2022-09-25T23:26:47.207Z,7.20
2022-09-25T23:29:16.826Z,7.20
2022-09-25T23:31:46.275Z,7.30
2022-09-25T23:34:14.819Z,7.30
2022-09-25T23:36:44.624Z,7.30
2022-09-25T23:39:16.808Z,7.30
2022-09-25T23:41:45.098Z,7.30
2022-09-25T23:44:14.556Z,7.30
2022-09-25T23:46:43.993Z,7.30
2022-09-25T23:49:13.527Z,7.30
2022-09-25T23:51:41.966Z,7.40
2022-09-25T23:54:12.266Z,7.50
2022-09-25T23:56:41.167Z,7.50
2022-09-25T23:59:11.118Z,7.50
